Time;durP1;ratioP1;P1;durP2;ratioP2;P2;SDS_P1;SDS_P2;PMS_P1;PMS_P2;Temp;Humidity;BMP_temperature;BMP_pressure;BME280_temperature;BME280_humidity;BME280_pressure;Samples;Min_cycle;Max_cycle;Signal;HPM_P1;HPM_P2
2022/02/07 00:01:13;;;;;;;;;;;21.10;99.90;;;;;;5074442;28;19947;-71
2022/02/07 00:03:47;;;;;;;;;;;21.30;99.90;;;;;;5074677;28;19927;-72
2022/02/07 00:06:14;;;;;;;;;;;21.50;99.90;;;;;;5074409;28;20382;-71
2022/02/07 00:08:44;;;;;;;;;;;21.60;99.90;;;;;;5074556;28;20260;-71
2022/02/07 00:11:15;;;;;;;;;;;21.70;99.90;;;;;;5074173;28;19908;-70
2022/02/07 00:13:42;;;;;;;;;;;21.70;99.90;;;;;;5074248;28;19909;-71
2022/02/07 00:16:09;;;;;;;;;;;21.70;99.90;;;;;;5073971;28;19909;-71
2022/02/07 00:18:37;;;;;;;;;;;21.70;99.90;;;;;;5074231;28;19915;-71
2022/02/07 00:21:04;;;;;;;;;;;21.70;99.90;;;;;;5074401;28;19912;-71
2022/02/07 00:23:30;;;;;;;;;;;21.60;99.90;;;;;;5074177;28;20006;-71
2022/02/07 00:25:57;;;;;;;;;;;21.60;99.90;;;;;;5073451;28;19924;-71
2022/02/07 00:28:24;;;;;;;;;;;21.60;99.90;;;;;;5074076;28;19919;-72
2022/02/07 00:30:51;;;;;;;;;;;21.70;99.90;;;;;;5073931;28;19908;-71
2022/02/07 00:33:17;;;;;;;;;;;21.80;99.90;;;;;;5073861;28;20363;-72
2022/02/07 00:35:44;;;;;;;;;;;21.80;99.90;;;;;;5074053;28;19919;-72
2022/02/07 00:38:16;;;;;;;;;;;21.70;99.90;;;;;;5073950;28;19916;-72
2022/02/07 00:40:47;;;;;;;;;;;21.70;99.90;;;;;;5073703;28;19982;-71
2022/02/07 00:43:26;;;;;;;;;;;21.80;99.90;;;;;;5073447;28;20290;-71
2022/02/07 00:46:03;;;;;;;;;;;21.90;99.90;;;;;;5072786;28;20283;-70
2022/02/07 00:48:29;;;;;;;;;;;22.00;99.90;;;;;;5102882;28;20323;-72
2022/02/07 00:50:56;;;;;;;;;;;22.10;99.90;;;;;;5073421;28;20317;-71
2022/02/07 00:53:23;;;;;;;;;;;22.20;99.90;;;;;;5073459;28;19908;-70
2022/02/07 00:55:50;;;;;;;;;;;22.30;99.90;;;;;;5073306;28;19909;-71
2022/02/07 00:58:17;;;;;;;;;;;22.40;99.90;;;;;;5073065;28;20244;-71
2022/02/07 01:00:44;;;;;;;;;;;22.20;99.90;;;;;;5073000;28;19924;-71
2022/02/07 01:03:10;;;;;;;;;;;22.20;99.90;;;;;;5073037;28;19908;-72
2022/02/07 01:05:37;;;;;;;;;;;22.30;99.90;;;;;;5072860;28;20029;-71
2022/02/07 01:08:05;;;;;;;;;;;22.30;99.90;;;;;;5072979;28;20453;-71
2022/02/07 01:10:43;;;;;;;;;;;22.40;99.90;;;;;;5073113;28;19909;-72
2022/02/07 01:46:01;;;;;;;;;;;23.00;99.90;;;;;;5073065;28;19909;-72
2022/02/07 01:50:58;;;;;;;;;;;24.30;99.90;;;;;;5072568;28;19991;-72
2022/02/07 01:54:06;;;;;;;;;;;24.00;99.90;;;;;;5072597;28;19920;-73
2022/02/07 01:56:11;;;;;;;;;;;23.50;99.90;;;;;;5071582;28;19915;-72
2022/02/07 01:58:38;;;;;;;;;;;22.90;99.90;;;;;;5072272;28;19909;-71
2022/02/07 02:01:04;;;;;;;;;;;22.80;99.90;;;;;;5072391;28;19970;-72
2022/02/07 02:03:31;;;;;;;;;;;22.80;99.90;;;;;;5072319;28;20306;-72
2022/02/07 02:05:59;;;;;;;;;;;22.50;99.90;;;;;;5071945;28;20572;-73
2022/02/07 02:08:25;;;;;;;;;;;22.20;99.90;;;;;;5072499;28;19947;-72
2022/02/07 02:10:57;;;;;;;;;;;21.30;99.90;;;;;;5072289;28;19916;-73
2022/02/07 02:13:29;;;;;;;;;;;20.90;99.90;;;;;;5072351;28;19949;-73
2022/02/07 02:16:07;;;;;;;;;;;20.60;99.90;;;;;;5072299;28;19962;-73
2022/02/07 02:19:20;;;;;;;;;;;20.70;99.90;;;;;;5072305;28;19908;-73
2022/02/07 02:33:41;;;;;;;;;;;19.20;99.90;;;;;;5072426;28;19962;-73
2022/02/07 02:38:15;;;;;;;;;;;18.50;99.90;;;;;;5072092;28;19916;-72
2022/02/07 02:46:18;;;;;;;;;;;17.90;99.90;;;;;;5072128;28;20050;-73
2022/02/07 02:48:45;;;;;;;;;;;17.80;99.90;;;;;;5072099;28;20003;-72
2022/02/07 02:51:11;;;;;;;;;;;17.90;99.90;;;;;;5075737;28;19999;-72
2022/02/07 02:53:38;;;;;;;;;;;18.00;99.90;;;;;;5075390;28;20004;-72
2022/02/07 02:56:05;;;;;;;;;;;18.00;99.90;;;;;;5075754;28;19991;-73
2022/02/07 02:58:31;;;;;;;;;;;17.90;99.90;;;;;;5075756;28;19994;-73
2022/02/07 03:00:58;;;;;;;;;;;18.00;99.90;;;;;;5075723;28;20379;-73
2022/02/07 03:03:25;;;;;;;;;;;18.20;99.90;;;;;;5075697;28;19908;-73
2022/02/07 03:05:51;;;;;;;;;;;18.30;99.90;;;;;;5075925;28;19917;-72
2022/02/07 03:08:19;;;;;;;;;;;18.40;99.90;;;;;;5075381;28;19916;-72
2022/02/07 03:10:58;;;;;;;;;;;18.40;99.90;;;;;;5075340;28;19908;-73
2022/02/07 03:18:36;;;;;;;;;;;19.10;99.90;;;;;;5075361;28;20410;-74
2022/02/07 03:21:03;;;;;;;;;;;19.20;99.90;;;;;;5075193;28;19916;-72
2022/02/07 03:23:29;;;;;;;;;;;19.50;99.90;;;;;;5075126;28;19918;-72
2022/02/07 03:25:56;;;;;;;;;;;19.70;99.90;;;;;;5074812;28;19923;-72
2022/02/07 03:28:24;;;;;;;;;;;19.90;99.90;;;;;;5075148;28;19958;-72
2022/02/07 03:30:50;;;;;;;;;;;20.00;99.90;;;;;;5075056;28;19914;-72
2022/02/07 03:33:17;;;;;;;;;;;20.10;99.90;;;;;;5074781;28;19908;-73
2022/02/07 03:35:44;;;;;;;;;;;20.30;99.90;;;;;;5074023;28;19915;-72
2022/02/07 03:38:11;;;;;;;;;;;20.30;99.90;;;;;;5075175;28;19954;-72
2022/02/07 03:40:38;;;;;;;;;;;20.20;99.90;;;;;;5074866;28;19915;-71
2022/02/07 03:43:05;;;;;;;;;;;20.00;99.90;;;;;;5074313;28;19912;-71
2022/02/07 03:45:31;;;;;;;;;;;19.70;99.90;;;;;;5074533;28;20287;-71
2022/02/07 03:47:59;;;;;;;;;;;19.20;99.90;;;;;;5074342;28;19916;-71
2022/02/07 03:50:26;;;;;;;;;;;19.00;99.90;;;;;;5107395;28;20287;-72
2022/02/07 03:52:52;;;;;;;;;;;18.80;99.90;;;;;;5074861;28;19909;-72
2022/02/07 03:55:19;;;;;;;;;;;18.90;99.90;;;;;;5074676;28;19909;-74
2022/02/07 03:57:46;;;;;;;;;;;18.90;99.90;;;;;;5074251;28;19908;-73
2022/02/07 04:00:13;;;;;;;;;;;19.00;99.90;;;;;;5074066;28;20034;-73
2022/02/07 04:02:44;;;;;;;;;;;18.90;99.90;;;;;;5074560;28;19909;-73
2022/02/07 04:07:56;;;;;;;;;;;19.00;99.90;;;;;;5074695;28;19919;-73
2022/02/07 04:10:24;;;;;;;;;;;19.00;99.90;;;;;;5073999;28;19916;-73
2022/02/07 04:12:57;;;;;;;;;;;19.20;99.90;;;;;;5073438;28;19908;-73
2022/02/07 04:15:24;;;;;;;;;;;19.30;99.90;;;;;;5074211;28;20334;-73
2022/02/07 04:17:56;;;;;;;;;;;19.40;99.90;;;;;;5073844;28;19908;-73
2022/02/07 04:20:23;;;;;;;;;;;19.60;99.90;;;;;;5074095;28;19908;-73
2022/02/07 04:22:50;;;;;;;;;;;19.60;99.90;;;;;;5074180;28;19909;-73
2022/02/07 04:25:16;;;;;;;;;;;19.60;99.90;;;;;;5073915;28;19931;-72
2022/02/07 04:27:43;;;;;;;;;;;19.80;99.90;;;;;;5074121;28;19915;-72
2022/02/07 04:30:11;;;;;;;;;;;19.80;99.90;;;;;;5073918;28;19915;-73
2022/02/07 04:32:37;;;;;;;;;;;19.90;99.90;;;;;;5073752;28;20402;-72
2022/02/07 04:35:05;;;;;;;;;;;20.00;99.90;;;;;;5073817;28;19912;-72
2022/02/07 04:37:31;;;;;;;;;;;20.00;99.90;;;;;;5073795;28;20011;-72
2022/02/07 04:39:58;;;;;;;;;;;20.00;99.90;;;;;;5073715;28;19954;-72
2022/02/07 04:42:26;;;;;;;;;;;20.10;99.90;;;;;;5073652;28;19909;-72
2022/02/07 04:50:24;;;;;;;;;;;20.20;99.90;;;;;;5073338;28;19908;-71
2022/02/07 04:55:43;;;;;;;;;;;20.10;99.90;;;;;;5073572;28;19998;-72
2022/02/07 04:58:40;;;;;;;;;;;20.00;99.90;;;;;;5072877;28;20388;-71
2022/02/07 05:01:14;;;;;;;;;;;19.90;99.90;;;;;;5073147;28;19968;-73
2022/02/07 05:03:47;;;;;;;;;;;19.90;99.90;;;;;;5073370;28;19908;-71
2022/02/07 05:14:33;;;;;;;;;;;20.30;99.90;;;;;;5072926;28;19916;-72
2022/02/07 05:17:01;;;;;;;;;;;20.50;99.90;;;;;;5073331;28;19944;-72
2022/02/07 05:19:27;;;;;;;;;;;20.50;99.90;;;;;;5073098;28;19995;-73
2022/02/07 05:21:54;;;;;;;;;;;20.60;99.90;;;;;;5072815;28;19970;-72
2022/02/07 05:24:21;;;;;;;;;;;20.60;99.90;;;;;;5073067;28;19908;-72
2022/02/07 05:26:47;;;;;;;;;;;20.60;99.90;;;;;;5072966;28;19916;-72
2022/02/07 05:29:14;;;;;;;;;;;20.60;99.90;;;;;;5072653;28;19916;-72
2022/02/07 05:31:41;;;;;;;;;;;20.80;99.90;;;;;;5072763;28;19916;-71
2022/02/07 05:34:08;;;;;;;;;;;20.90;99.90;;;;;;5072586;28;19909;-71
2022/02/07 05:36:42;;;;;;;;;;;20.80;99.90;;;;;;5072523;28;19909;-71
2022/02/07 05:39:16;;;;;;;;;;;21.00;99.90;;;;;;5072767;28;19908;-72
2022/02/07 05:41:43;;;;;;;;;;;21.10;99.90;;;;;;5072617;28;20349;-72
2022/02/07 05:44:12;;;;;;;;;;;21.20;99.90;;;;;;5072354;28;19955;-72
2022/02/07 05:46:39;;;;;;;;;;;21.30;99.90;;;;;;5072489;28;19916;-73
2022/02/07 05:49:05;;;;;;;;;;;21.30;99.90;;;;;;5072682;28;19908;-72
2022/02/07 05:51:33;;;;;;;;;;;21.40;99.90;;;;;;5070915;28;19909;-72
2022/02/07 05:53:59;;;;;;;;;;;21.50;99.90;;;;;;5070285;28;20290;-72
2022/02/07 05:56:26;;;;;;;;;;;21.60;99.90;;;;;;5070378;28;20026;-72
2022/02/07 05:58:52;;;;;;;;;;;21.50;99.90;;;;;;5070227;28;19912;-72
2022/02/07 06:01:19;;;;;;;;;;;21.50;99.90;;;;;;5070188;28;19912;-73
2022/02/07 06:03:46;;;;;;;;;;;21.40;99.90;;;;;;5069926;28;19916;-72
2022/02/07 06:06:12;;;;;;;;;;;21.50;99.90;;;;;;5069828;28;20013;-71
2022/02/07 06:08:39;;;;;;;;;;;21.40;99.90;;;;;;5070480;28;19908;-72
2022/02/07 06:11:07;;;;;;;;;;;21.40;99.90;;;;;;5070186;28;19916;-72
2022/02/07 06:13:36;;;;;;;;;;;21.50;99.90;;;;;;5069886;28;19967;-71
2022/02/07 06:16:04;;;;;;;;;;;21.50;99.90;;;;;;5069738;28;19909;-72
2022/02/07 06:18:31;;;;;;;;;;;21.50;99.90;;;;;;5069970;28;19920;-72
2022/02/07 06:21:03;;;;;;;;;;;21.40;99.90;;;;;;5070108;28;19977;-72
2022/02/07 06:23:29;;;;;;;;;;;21.40;99.90;;;;;;5070939;28;19909;-72
2022/02/07 06:25:57;;;;;;;;;;;21.30;99.90;;;;;;5073846;28;19916;-72
2022/02/07 06:28:24;;;;;;;;;;;21.30;99.90;;;;;;5073926;28;19974;-72
2022/02/07 06:30:50;;;;;;;;;;;21.30;99.90;;;;;;5073665;28;19916;-72
2022/02/07 06:33:17;;;;;;;;;;;21.30;99.90;;;;;;5074090;28;19909;-72
2022/02/07 06:35:44;;;;;;;;;;;21.20;99.90;;;;;;5073976;28;19919;-72
2022/02/07 06:38:10;;;;;;;;;;;21.30;99.90;;;;;;5073850;28;19928;-72
2022/02/07 06:40:37;;;;;;;;;;;21.30;99.90;;;;;;5074125;28;19919;-71
2022/02/07 06:43:04;;;;;;;;;;;21.40;99.90;;;;;;5073690;28;19917;-72
2022/02/07 06:45:31;;;;;;;;;;;21.40;99.90;;;;;;5073718;28;19912;-71
2022/02/07 06:47:59;;;;;;;;;;;21.50;99.90;;;;;;5073716;28;20375;-72
2022/02/07 06:50:25;;;;;;;;;;;21.60;99.90;;;;;;5073740;28;20007;-71
2022/02/07 06:52:52;;;;;;;;;;;21.60;99.90;;;;;;5073761;28;20513;-72
2022/02/07 06:55:19;;;;;;;;;;;21.60;99.90;;;;;;5073668;28;19995;-71
2022/02/07 06:57:45;;;;;;;;;;;21.60;99.90;;;;;;5073246;28;20057;-71
2022/02/07 07:00:12;;;;;;;;;;;21.50;99.90;;;;;;5073429;28;19922;-72
2022/02/07 07:02:39;;;;;;;;;;;21.50;99.90;;;;;;5073184;28;19951;-72
2022/02/07 07:05:13;;;;;;;;;;;21.50;99.90;;;;;;5073158;28;20335;-71
2022/02/07 07:07:40;;;;;;;;;;;21.40;99.90;;;;;;5072227;28;20372;-71
2022/02/07 07:10:08;;;;;;;;;;;21.30;99.90;;;;;;5072538;28;19955;-71
2022/02/07 07:12:36;;;;;;;;;;;21.30;99.90;;;;;;5073886;28;19920;-71
2022/02/07 07:15:09;;;;;;;;;;;21.30;99.90;;;;;;5073226;28;20008;-71
2022/02/07 07:17:36;;;;;;;;;;;21.30;99.90;;;;;;5072678;28;19958;-71
2022/02/07 07:20:06;;;;;;;;;;;21.30;99.90;;;;;;5072899;28;19913;-71
2022/02/07 07:22:33;;;;;;;;;;;21.30;99.90;;;;;;5073495;28;19961;-70
2022/02/07 07:25:01;;;;;;;;;;;21.30;99.90;;;;;;5072626;28;19913;-73
2022/02/07 07:27:32;;;;;;;;;;;21.30;99.90;;;;;;5072937;28;19913;-72
2022/02/07 07:29:58;;;;;;;;;;;21.30;99.90;;;;;;5072869;28;20229;-73
2022/02/07 07:32:29;;;;;;;;;;;21.20;99.90;;;;;;5072251;28;19908;-72
2022/02/07 07:34:56;;;;;;;;;;;21.30;99.90;;;;;;5071936;28;19962;-71
2022/02/07 07:37:23;;;;;;;;;;;21.20;99.90;;;;;;5072726;28;19912;-72
2022/02/07 07:39:50;;;;;;;;;;;21.20;99.90;;;;;;5072701;28;19974;-72
2022/02/07 07:42:17;;;;;;;;;;;21.20;99.90;;;;;;5072921;28;19913;-73
2022/02/07 07:44:46;;;;;;;;;;;21.20;99.90;;;;;;5072910;28;20359;-70
2022/02/07 07:47:18;;;;;;;;;;;21.10;99.90;;;;;;5072779;28;19916;-71
2022/02/07 07:49:51;;;;;;;;;;;21.10;99.90;;;;;;5072325;28;19912;-72
2022/02/07 07:52:30;;;;;;;;;;;21.10;99.90;;;;;;5072888;28;19909;-72
2022/02/07 07:55:24;;;;;;;;;;;21.00;99.90;;;;;;5072891;28;20390;-71
2022/02/07 08:03:46;;;;;;;;;;;20.90;99.90;;;;;;5049279;28;19909;-71
2022/02/07 08:06:17;;;;;;;;;;;20.90;99.90;;;;;;5070139;28;19916;-71
2022/02/07 08:08:49;;;;;;;;;;;20.70;99.90;;;;;;5074534;28;19931;-71
2022/02/07 08:11:17;;;;;;;;;;;20.60;99.90;;;;;;5074190;28;19909;-71
2022/02/07 08:13:45;;;;;;;;;;;20.50;99.90;;;;;;5073850;28;19912;-72
2022/02/07 08:16:12;;;;;;;;;;;20.50;99.90;;;;;;5074352;28;19959;-71
2022/02/07 08:18:39;;;;;;;;;;;20.40;99.90;;;;;;5074155;28;19908;-71
2022/02/07 08:21:06;;;;;;;;;;;20.40;99.90;;;;;;5074130;28;20375;-72
2022/02/07 08:23:33;;;;;;;;;;;20.40;99.90;;;;;;5074427;28;19947;-71
2022/02/07 08:26:02;;;;;;;;;;;20.40;99.90;;;;;;5073752;28;19917;-71
2022/02/07 08:28:29;;;;;;;;;;;20.50;99.90;;;;;;5073627;28;19916;-71
2022/02/07 08:30:56;;;;;;;;;;;20.50;99.90;;;;;;5074095;28;19915;-71
2022/02/07 08:33:22;;;;;;;;;;;20.60;99.90;;;;;;5073928;28;19915;-72
2022/02/07 08:35:49;;;;;;;;;;;20.60;99.90;;;;;;5073764;28;20329;-72
2022/02/07 08:38:19;;;;;;;;;;;20.60;99.90;;;;;;5074039;28;20007;-72
2022/02/07 08:40:46;;;;;;;;;;;20.60;99.90;;;;;;5073881;28;19916;-72
2022/02/07 08:43:13;;;;;;;;;;;20.60;99.90;;;;;;5073207;28;20003;-72
2022/02/07 08:45:40;;;;;;;;;;;20.50;99.90;;;;;;5073472;28;20019;-71
2022/02/07 08:48:07;;;;;;;;;;;20.50;99.90;;;;;;5073395;28;20329;-71
2022/02/07 08:50:34;;;;;;;;;;;20.50;99.90;;;;;;5073376;28;19912;-72
2022/02/07 08:53:03;;;;;;;;;;;20.40;99.90;;;;;;5073655;28;20317;-72
2022/02/07 08:55:35;;;;;;;;;;;20.50;99.90;;;;;;5073287;28;19912;-72
2022/02/07 08:58:07;;;;;;;;;;;20.50;99.90;;;;;;5073245;28;19909;-71
2022/02/07 09:01:02;;;;;;;;;;;20.60;99.90;;;;;;5073459;28;20440;-71
2022/02/07 09:08:55;;;;;;;;;;;20.60;99.90;;;;;;5073439;28;20270;-72
2022/02/07 09:11:21;;;;;;;;;;;20.60;99.90;;;;;;5073303;28;20059;-71
2022/02/07 09:13:48;;;;;;;;;;;20.60;99.90;;;;;;5073098;28;20282;-71
2022/02/07 09:16:29;;;;;;;;;;;20.60;99.90;;;;;;5073167;28;19908;-71
2022/02/07 09:18:57;;;;;;;;;;;20.50;99.90;;;;;;5073262;28;20266;-71
2022/02/07 09:21:25;;;;;;;;;;;20.60;99.90;;;;;;5073150;28;19916;-71
2022/02/07 09:23:52;;;;;;;;;;;20.50;99.90;;;;;;5072793;28;19909;-71
2022/02/07 09:26:18;;;;;;;;;;;20.50;99.90;;;;;;5072811;28;19970;-71
2022/02/07 09:28:45;;;;;;;;;;;20.50;99.90;;;;;;5073005;28;19908;-72
2022/02/07 09:31:12;;;;;;;;;;;20.50;99.90;;;;;;5073056;28;19909;-72
2022/02/07 09:33:41;;;;;;;;;;;20.50;99.90;;;;;;5072903;28;19995;-72
2022/02/07 09:36:07;;;;;;;;;;;20.50;99.90;;;;;;5072516;28;19916;-72
2022/02/07 09:38:34;;;;;;;;;;;20.60;99.90;;;;;;5072960;28;19916;-73
2022/02/07 09:41:01;;;;;;;;;;;20.60;99.90;;;;;;5072610;28;19912;-72
2022/02/07 09:43:35;;;;;;;;;;;20.60;99.90;;;;;;5072718;28;20282;-72
2022/02/07 09:46:12;;;;;;;;;;;20.60;99.90;;;;;;5072419;28;19939;-72
2022/02/07 09:48:40;;;;;;;;;;;20.70;99.90;;;;;;5072200;28;19941;-73
2022/02/07 09:51:10;;;;;;;;;;;20.60;99.90;;;;;;5072717;28;19915;-72
2022/02/07 09:53:38;;;;;;;;;;;20.60;99.90;;;;;;5072715;28;19908;-72
2022/02/07 09:56:08;;;;;;;;;;;20.60;99.90;;;;;;5072300;28;19913;-72
2022/02/07 09:58:38;;;;;;;;;;;20.50;99.90;;;;;;5071957;28;20543;-72
2022/02/07 10:01:12;;;;;;;;;;;20.50;99.90;;;;;;5072651;28;19962;-72
2022/02/07 10:03:48;;;;;;;;;;;20.40;99.90;;;;;;5071446;28;19909;-72
2022/02/07 10:06:35;;;;;;;;;;;20.40;99.90;;;;;;5072634;28;19920;-72
2022/02/07 10:09:22;;;;;;;;;;;20.40;99.90;;;;;;5072494;28;20428;-72
2022/02/07 10:14:52;;;;;;;;;;;20.30;99.90;;;;;;5072402;28;20007;-73
2022/02/07 10:17:46;;;;;;;;;;;20.30;99.90;;;;;;5072783;28;19915;-72
2022/02/07 10:34:26;;;;;;;;;;;20.20;99.90;;;;;;5072607;28;19912;-72
2022/02/07 10:40:19;;;;;;;;;;;20.10;99.90;;;;;;5061533;28;20419;-72
2022/02/07 10:43:08;;;;;;;;;;;20.10;99.90;;;;;;5072186;28;19908;-70
2022/02/07 10:45:35;;;;;;;;;;;20.10;99.90;;;;;;5072231;28;19966;-72
2022/02/07 10:48:07;;;;;;;;;;;20.10;99.90;;;;;;5071263;28;19912;-72
2022/02/07 10:50:33;;;;;;;;;;;20.10;99.90;;;;;;5086276;28;20009;-72
2022/02/07 10:53:00;;;;;;;;;;;20.10;99.90;;;;;;5092158;28;19908;-72
2022/02/07 10:55:30;;;;;;;;;;;20.00;99.90;;;;;;5092162;28;19978;-72
2022/02/07 10:57:58;;;;;;;;;;;20.10;99.90;;;;;;5092081;28;20387;-72
2022/02/07 11:00:32;;;;;;;;;;;20.10;99.90;;;;;;5092095;28;20358;-72
2022/02/07 11:03:09;;;;;;;;;;;20.10;99.90;;;;;;5091864;28;19909;-72
2022/02/07 11:05:42;;;;;;;;;;;20.10;99.90;;;;;;5092017;28;19958;-72
2022/02/07 11:08:23;;;;;;;;;;;20.20;99.90;;;;;;5092063;28;19931;-72
2022/02/07 11:11:33;;;;;;;;;;;20.20;99.90;;;;;;5093465;28;19955;-72
2022/02/07 11:21:35;;;;;;;;;;;20.00;99.90;;;;;;5095633;28;19912;-71
2022/02/07 11:24:22;;;;;;;;;;;19.80;99.90;;;;;;5095651;28;20009;-71
2022/02/07 11:26:50;;;;;;;;;;;19.80;99.90;;;;;;5095324;28;20388;-70
2022/02/07 11:29:37;;;;;;;;;;;19.70;99.90;;;;;;5095596;28;20007;-71
2022/02/07 11:32:03;;;;;;;;;;;19.60;99.90;;;;;;5095384;28;19915;-72
2022/02/07 11:34:49;;;;;;;;;;;19.50;99.90;;;;;;5095213;28;19908;-72
2022/02/07 11:37:17;;;;;;;;;;;19.40;99.90;;;;;;5095368;28;20007;-71
2022/02/07 11:39:48;;;;;;;;;;;19.30;99.90;;;;;;5095402;28;20362;-71
2022/02/07 11:42:14;;;;;;;;;;;19.30;99.90;;;;;;5095135;28;19912;-71
2022/02/07 11:44:45;;;;;;;;;;;19.30;99.90;;;;;;5095236;28;19908;-71
2022/02/07 11:47:15;;;;;;;;;;;19.20;99.90;;;;;;5095053;28;19923;-71
2022/02/07 11:49:42;;;;;;;;;;;19.10;99.90;;;;;;5095282;28;19954;-71
2022/02/07 11:52:27;;;;;;;;;;;19.10;99.90;;;;;;5094968;28;19908;-71
2022/02/07 11:54:55;;;;;;;;;;;19.00;99.90;;;;;;5094854;28;19966;-71
2022/02/07 11:57:23;;;;;;;;;;;18.90;99.90;;;;;;5095076;28;19915;-71
2022/02/07 11:59:59;;;;;;;;;;;18.90;99.90;;;;;;5094561;28;20371;-71
2022/02/07 12:02:36;;;;;;;;;;;18.80;99.90;;;;;;5094865;28;19931;-72
2022/02/07 12:05:07;;;;;;;;;;;18.80;99.90;;;;;;5094788;28;19915;-72
2022/02/07 12:07:38;;;;;;;;;;;18.80;99.90;;;;;;5094874;28;20290;-72
2022/02/07 12:12:45;;;;;;;;;;;18.80;99.90;;;;;;5094732;28;19908;-72
2022/02/07 12:18:02;;;;;;;;;;;18.80;99.90;;;;;;5094472;28;19947;-72
2022/02/07 12:20:33;;;;;;;;;;;18.90;99.90;;;;;;5094451;28;20559;-72
2022/02/07 12:23:07;;;;;;;;;;;18.90;99.90;;;;;;5094136;28;19953;-72
2022/02/07 12:25:37;;;;;;;;;;;18.90;99.90;;;;;;5094291;28;19919;-72
2022/02/07 12:28:08;;;;;;;;;;;18.90;99.90;;;;;;5094334;28;19919;-72
2022/02/07 12:30:48;;;;;;;;;;;18.90;99.90;;;;;;5078265;28;20444;-72
2022/02/07 12:33:17;;;;;;;;;;;18.90;99.90;;;;;;5074018;28;20013;-72
2022/02/07 12:35:47;;;;;;;;;;;19.00;99.90;;;;;;5074362;28;20359;-72
2022/02/07 12:38:14;;;;;;;;;;;19.00;99.90;;;;;;5074165;28;19944;-72
2022/02/07 12:40:41;;;;;;;;;;;19.00;99.90;;;;;;5073863;28;20275;-72
2022/02/07 12:43:12;;;;;;;;;;;19.00;99.90;;;;;;5073832;28;19912;-72
2022/02/07 12:45:40;;;;;;;;;;;19.00;99.90;;;;;;5073802;28;20726;-72
2022/02/07 12:48:12;;;;;;;;;;;19.00;99.90;;;;;;5073702;28;19920;-72
2022/02/07 12:50:47;;;;;;;;;;;18.90;99.90;;;;;;5073814;28;19909;-72
2022/02/07 12:53:16;;;;;;;;;;;18.80;99.90;;;;;;5072631;28;19908;-72
2022/02/07 12:55:45;;;;;;;;;;;18.80;99.90;;;;;;5073437;28;19909;-72
2022/02/07 12:58:12;;;;;;;;;;;18.70;99.90;;;;;;5073656;28;19916;-72
2022/02/07 13:00:39;;;;;;;;;;;18.60;99.90;;;;;;5073407;28;19920;-73
2022/02/07 13:03:06;;;;;;;;;;;18.40;99.90;;;;;;5073264;28;19954;-72
2022/02/07 13:05:35;;;;;;;;;;;18.30;99.90;;;;;;5073282;28;19912;-72
2022/02/07 13:08:02;;;;;;;;;;;18.20;99.90;;;;;;5073168;28;19908;-72
2022/02/07 13:10:35;;;;;;;;;;;18.20;99.90;;;;;;5072968;28;19991;-72
2022/02/07 13:15:32;;;;;;;;;;;18.10;99.90;;;;;;5073332;28;19909;-73
2022/02/07 13:18:03;;;;;;;;;;;18.00;99.90;;;;;;5073008;28;19991;-72
2022/02/07 13:20:30;;;;;;;;;;;18.00;99.90;;;;;;5073215;28;20312;-73
2022/02/07 13:23:17;;;;;;;;;;;17.90;99.90;;;;;;5073079;28;20001;-72
2022/02/07 13:25:48;;;;;;;;;;;17.90;99.90;;;;;;5072890;28;19920;-73
2022/02/07 13:28:16;;;;;;;;;;;18.00;99.90;;;;;;5073040;28;19969;-72
2022/02/07 13:30:43;;;;;;;;;;;18.00;99.90;;;;;;5073056;28;19908;-72
2022/02/07 13:33:10;;;;;;;;;;;18.00;99.90;;;;;;5072192;28;19912;-72
2022/02/07 13:35:39;;;;;;;;;;;17.90;99.90;;;;;;5072929;28;19966;-72
2022/02/07 13:38:07;;;;;;;;;;;17.90;99.90;;;;;;5072681;28;20445;-73
2022/02/07 13:40:43;;;;;;;;;;;17.90;99.90;;;;;;5072633;28;19913;-72
2022/02/07 13:43:23;;;;;;;;;;;17.80;99.90;;;;;;5072969;28;19908;-72
2022/02/07 13:46:02;;;;;;;;;;;17.80;99.90;;;;;;5072526;28;19921;-72
2022/02/07 13:48:29;;;;;;;;;;;17.60;99.90;;;;;;5072820;28;19908;-72
2022/02/07 13:50:57;;;;;;;;;;;17.50;99.90;;;;;;5072911;28;19912;-73
2022/02/07 13:53:25;;;;;;;;;;;17.40;99.90;;;;;;5072745;28;19909;-73
2022/02/07 13:55:53;;;;;;;;;;;17.40;99.90;;;;;;5072336;28;19915;-73
2022/02/07 13:58:34;;;;;;;;;;;17.30;99.90;;;;;;5072550;28;20427;-73
2022/02/07 14:01:13;;;;;;;;;;;17.20;99.90;;;;;;5072833;28;19963;-73
2022/02/07 14:03:42;;;;;;;;;;;17.10;99.90;;;;;;5072485;28;19912;-72
2022/02/07 14:06:13;;;;;;;;;;;17.00;99.90;;;;;;5072335;28;19917;-73
2022/02/07 14:08:41;;;;;;;;;;;16.90;99.90;;;;;;5072424;28;19955;-73
2022/02/07 14:11:09;;;;;;;;;;;16.90;99.90;;;;;;5072441;28;20393;-73
2022/02/07 14:13:36;;;;;;;;;;;16.90;99.90;;;;;;5072581;28;19909;-73
2022/02/07 14:16:03;;;;;;;;;;;16.90;99.90;;;;;;5072399;28;19962;-73
2022/02/07 14:18:32;;;;;;;;;;;16.90;99.90;;;;;;5072653;28;19962;-72
2022/02/07 14:21:08;;;;;;;;;;;16.90;99.90;;;;;;5072370;28;19939;-73
2022/02/07 14:23:35;;;;;;;;;;;16.90;99.90;;;;;;5072574;28;19915;-72
2022/02/07 14:26:03;;;;;;;;;;;16.90;99.90;;;;;;5072016;28;20324;-72
2022/02/07 14:28:30;;;;;;;;;;;16.90;99.90;;;;;;5072384;28;19912;-72
2022/02/07 14:30:58;;;;;;;;;;;16.80;99.90;;;;;;5072233;28;19962;-71
2022/02/07 14:33:25;;;;;;;;;;;16.80;99.90;;;;;;5072323;28;19919;-72
2022/02/07 14:35:52;;;;;;;;;;;16.80;99.90;;;;;;5071969;28;19916;-72
2022/02/07 14:38:19;;;;;;;;;;;16.80;99.90;;;;;;5072169;28;19995;-71
2022/02/07 14:40:45;;;;;;;;;;;16.70;99.90;;;;;;5072194;28;19952;-72
2022/02/07 14:43:14;;;;;;;;;;;16.80;99.90;;;;;;5072301;28;19947;-72
2022/02/07 14:45:52;;;;;;;;;;;16.70;99.90;;;;;;5075026;28;19916;-72
2022/02/07 14:48:19;;;;;;;;;;;16.70;99.90;;;;;;5075984;28;19916;-72
2022/02/07 14:50:46;;;;;;;;;;;16.80;99.90;;;;;;5075930;28;19908;-71
2022/02/07 14:53:15;;;;;;;;;;;16.70;99.90;;;;;;5076085;28;19917;-72
2022/02/07 14:55:42;;;;;;;;;;;16.70;99.90;;;;;;5076040;28;19954;-72
2022/02/07 14:58:09;;;;;;;;;;;16.60;99.90;;;;;;5075878;28;19908;-72
2022/02/07 15:00:36;;;;;;;;;;;16.60;99.90;;;;;;5075824;28;19928;-72
2022/02/07 15:03:05;;;;;;;;;;;16.70;99.90;;;;;;5075716;28;19915;-72
2022/02/07 15:05:34;;;;;;;;;;;16.70;99.90;;;;;;5075702;28;19938;-71
2022/02/07 15:08:01;;;;;;;;;;;16.70;99.90;;;;;;5075397;28;19912;-71
2022/02/07 15:10:32;;;;;;;;;;;16.70;99.90;;;;;;5075640;28;19931;-71
2022/02/07 15:12:59;;;;;;;;;;;16.70;99.90;;;;;;5075705;28;20271;-72
2022/02/07 15:15:26;;;;;;;;;;;16.70;99.90;;;;;;5075548;28;19915;-72
2022/02/07 15:17:55;;;;;;;;;;;16.70;99.90;;;;;;5075402;28;19908;-72
2022/02/07 15:20:22;;;;;;;;;;;16.70;99.90;;;;;;5075500;28;19969;-71
2022/02/07 15:22:50;;;;;;;;;;;16.70;99.90;;;;;;5075463;28;19992;-72
2022/02/07 15:25:19;;;;;;;;;;;16.60;99.90;;;;;;5075315;28;19924;-72
2022/02/07 15:27:47;;;;;;;;;;;16.60;99.90;;;;;;5075132;28;19909;-72
2022/02/07 15:30:15;;;;;;;;;;;16.60;99.90;;;;;;5075424;28;19913;-72
2022/02/07 15:32:45;;;;;;;;;;;16.60;99.90;;;;;;5075356;28;20367;-71
2022/02/07 15:35:12;;;;;;;;;;;16.60;99.90;;;;;;5075171;28;19909;-72
2022/02/07 15:37:39;;;;;;;;;;;16.60;99.90;;;;;;5075147;28;19933;-72
2022/02/07 15:40:06;;;;;;;;;;;16.70;99.90;;;;;;5074798;28;19912;-72
2022/02/07 15:42:33;;;;;;;;;;;16.60;99.90;;;;;;5075008;28;19909;-72
2022/02/07 15:45:02;;;;;;;;;;;16.60;99.90;;;;;;5075020;28;20318;-72
2022/02/07 15:47:34;;;;;;;;;;;16.60;99.90;;;;;;5075112;28;19913;-72
2022/02/07 15:50:05;;;;;;;;;;;16.60;99.90;;;;;;5074805;28;19908;-72
2022/02/07 15:52:32;;;;;;;;;;;16.60;99.90;;;;;;5075033;28;19908;-72
2022/02/07 15:54:59;;;;;;;;;;;16.50;99.90;;;;;;5074734;28;19999;-73
2022/02/07 15:57:26;;;;;;;;;;;16.50;99.90;;;;;;5073951;28;20435;-72
2022/02/07 15:59:53;;;;;;;;;;;16.50;99.90;;;;;;5074540;28;20375;-72
2022/02/07 16:02:19;;;;;;;;;;;16.50;99.90;;;;;;5074840;28;19909;-72
2022/02/07 16:04:46;;;;;;;;;;;16.40;99.90;;;;;;5074794;28;19919;-73
2022/02/07 16:07:13;;;;;;;;;;;16.50;99.90;;;;;;5074688;28;19920;-73
2022/02/07 16:09:39;;;;;;;;;;;16.40;99.90;;;;;;5074481;28;19934;-72
2022/02/07 16:12:12;;;;;;;;;;;16.40;99.90;;;;;;5074416;28;19944;-72
2022/02/07 16:14:39;;;;;;;;;;;16.30;99.90;;;;;;5074600;28;19908;-73
2022/02/07 16:17:06;;;;;;;;;;;16.30;99.90;;;;;;5074543;28;19908;-72
2022/02/07 16:19:33;;;;;;;;;;;16.30;99.90;;;;;;5074385;28;19943;-72
2022/02/07 16:21:59;;;;;;;;;;;16.40;99.90;;;;;;5074177;28;19961;-73
2022/02/07 16:24:26;;;;;;;;;;;16.40;99.90;;;;;;5074366;28;19912;-72
2022/02/07 16:26:53;;;;;;;;;;;16.40;99.90;;;;;;5074404;28;20497;-72
2022/02/07 16:29:20;;;;;;;;;;;16.30;99.90;;;;;;5074331;28;19987;-73
2022/02/07 16:31:47;;;;;;;;;;;16.30;99.90;;;;;;5074005;28;19909;-72
2022/02/07 16:34:17;;;;;;;;;;;16.30;99.90;;;;;;5074088;28;19916;-72
2022/02/07 16:36:48;;;;;;;;;;;16.30;99.90;;;;;;5073884;28;19916;-72